Time;durP1;ratioP1;P1;durP2;ratioP2;P2;SDS_P1;SDS_P2;PMS_P1;PMS_P2;Temp;Humidity;BMP_temperature;BMP_pressure;BME280_temperature;BME280_humidity;BME280_pressure;Samples;Min_cycle;Max_cycle;Signal;HPM_P1;HPM_P2
2022/11/01 00:02:04;;;;;;;107.38;55.92;;;332.80;2329.60;;;;;;5152751;27;20455;-60
2022/11/01 00:04:30;;;;;;;165.73;88.13;;;332.80;2329.60;;;;;;5152334;27;20066;-61
2022/11/01 00:06:56;;;;;;;48.90;24.70;;;332.80;2329.60;;;;;;5152014;27;20394;-61
2022/11/01 00:09:22;;;;;;;25.27;15.35;;;308.10;2304.00;;;;;;5152328;27;20045;-61
2022/11/01 00:11:48;;;;;;;35.13;20.15;;;308.10;2304.00;;;;;;5152147;27;20037;-60
2022/11/01 00:14:15;;;;;;;29.95;13.55;;;308.10;2304.00;;;;;;5152624;27;20022;-60
2022/11/01 00:16:42;;;;;;;155.05;80.28;;;308.10;2304.00;;;;;;5152340;27;20138;-61
2022/11/01 00:19:07;;;;;;;47.45;26.38;;;308.10;2304.00;;;;;;5152056;27;20050;-60
2022/11/01 00:21:33;;;;;;;40.97;26.85;;;308.00;2304.00;;;;;;5152211;27;20053;-60
2022/11/01 00:23:59;;;;;;;59.08;32.83;;;308.00;2304.00;;;;;;5152162;27;20019;-61
2022/11/01 00:26:25;;;;;;;121.35;70.93;;;308.10;2304.00;;;;;;5152415;27;20025;-60
2022/11/01 00:28:51;;;;;;;51.15;32.80;;;308.10;2304.00;;;;;;5152025;27;20027;-61
2022/11/01 00:31:18;;;;;;;19.95;12.23;;;308.00;2304.00;;;;;;5151687;27;20046;-61
2022/11/01 00:33:44;;;;;;;33.85;21.15;;;308.00;2304.00;;;;;;5152093;27;20463;-60
2022/11/01 00:36:10;;;;;;;30.38;19.00;;;308.00;2304.00;;;;;;5151647;27;20023;-60
2022/11/01 00:38:36;;;;;;;36.58;20.48;;;308.10;2304.00;;;;;;5151799;27;20023;-60
2022/11/01 00:41:02;;;;;;;83.05;45.95;;;308.10;2304.00;;;;;;5133034;27;20058;-61
2022/11/01 00:43:32;;;;;;;73.00;38.92;;;308.00;2304.00;;;;;;5151566;27;20075;-60
2022/11/01 00:45:58;;;;;;;41.67;20.92;;;308.00;2304.00;;;;;;5151783;27;20031;-59
2022/11/01 00:48:25;;;;;;;41.22;23.13;;;308.00;2304.00;;;;;;5152170;27;20452;-61
2022/11/01 00:50:51;;;;;;;47.45;25.75;;;308.00;2304.00;;;;;;5151608;27;20033;-60
2022/11/01 00:53:17;;;;;;;21.25;12.80;;;308.00;2304.00;;;;;;5151529;27;20027;-60
2022/11/01 00:55:42;;;;;;;26.33;13.18;;;308.00;2304.00;;;;;;5151984;27;20067;-60
2022/11/01 00:58:08;;;;;;;11.60;6.95;;;308.00;2304.00;;;;;;5151409;27;20041;-61
2022/11/01 01:00:35;;;;;;;14.00;6.50;;;307.90;2304.00;;;;;;5151739;27;20069;-61
2022/11/01 01:03:01;;;;;;;11.98;6.55;;;307.50;2304.00;;;;;;5133388;27;20115;-69
2022/11/01 01:05:26;;;;;;;19.33;9.70;;;307.80;2304.00;;;;;;5151477;27;20481;-62
2022/11/01 01:07:53;;;;;;;24.05;13.00;;;307.80;2304.00;;;;;;5151693;27;20079;-61
2022/11/01 01:10:19;;;;;;;29.88;19.42;;;307.90;2304.00;;;;;;5151151;27;20077;-61
2022/11/01 01:12:44;;;;;;;47.72;26.40;;;307.90;2304.00;;;;;;5151543;27;20049;-62
2022/11/01 01:15:10;;;;;;;21.88;12.10;;;307.90;2304.00;;;;;;5151748;27;20027;-61
2022/11/01 01:17:36;;;;;;;15.68;9.35;;;307.90;2304.00;;;;;;5151331;27;20046;-61
2022/11/01 01:20:02;;;;;;;19.77;13.10;;;307.90;2304.00;;;;;;5151629;27;20023;-61
2022/11/01 01:22:28;;;;;;;29.35;17.42;;;307.90;2304.00;;;;;;5151172;27;20464;-62
2022/11/01 01:24:54;;;;;;;28.35;16.25;;;307.90;2304.00;;;;;;5151723;27;20030;-60
2022/11/01 01:27:20;;;;;;;13.82;7.40;;;307.80;2304.00;;;;;;5151556;27;20023;-60
2022/11/01 01:29:46;;;;;;;17.25;11.50;;;307.90;2304.00;;;;;;5151180;27;20066;-61
2022/11/01 01:32:13;;;;;;;23.23;13.10;;;307.80;2304.00;;;;;;5151357;27;20023;-60
2022/11/01 01:34:39;;;;;;;24.48;15.48;;;307.80;2304.00;;;;;;5132672;27;20479;-61
2022/11/01 01:37:07;;;;;;;30.02;15.13;;;307.80;2304.00;;;;;;5151359;27;20052;-62
2022/11/01 01:39:34;;;;;;;32.15;18.90;;;307.80;2304.00;;;;;;5151173;27;20294;-60
2022/11/01 01:42:13;;;;;;;29.65;16.40;;;307.80;2304.00;;;;;;5150995;27;20041;-60
2022/11/01 01:44:51;;;;;;;22.27;13.80;;;307.70;2304.00;;;;;;5150974;27;20037;-61
2022/11/01 01:47:20;;;;;;;13.73;7.57;;;307.70;2304.00;;;;;;5151062;27;20378;-61
2022/11/01 01:49:49;;;;;;;19.27;6.22;;;307.70;2304.00;;;;;;5150851;27;20049;-62
2022/11/01 01:52:15;;;;;;;10.80;5.55;;;307.70;2304.00;;;;;;5151055;27;20550;-60
2022/11/01 01:54:41;;;;;;;19.02;8.10;;;307.70;2304.00;;;;;;5154159;27;20054;-61
2022/11/01 01:57:08;;;;;;;11.95;6.80;;;307.70;2304.00;;;;;;5155097;27;20019;-60
2022/11/01 01:59:36;;;;;;;13.18;6.75;;;307.70;2304.00;;;;;;5154817;27;20075;-61
2022/11/01 02:02:02;;;;;;;10.50;5.68;;;307.70;2304.00;;;;;;5154713;27;20030;-61
2022/11/01 02:04:43;;;;;;;13.02;5.53;;;307.70;2304.00;;;;;;5154389;27;20030;-61
2022/11/01 02:07:10;;;;;;;10.80;5.07;;;307.70;2304.00;;;;;;5136082;27;20018;-63
2022/11/01 02:09:37;;;;;;;10.35;5.78;;;307.70;2304.00;;;;;;5154318;27;20034;-60
2022/11/01 02:12:03;;;;;;;11.45;5.90;;;307.70;2304.00;;;;;;5154536;27;20023;-62
2022/11/01 02:14:30;;;;;;;13.43;5.72;;;307.70;2304.00;;;;;;5154726;27;20552;-60
2022/11/01 02:17:03;;;;;;;21.38;9.82;;;307.70;2304.00;;;;;;5154450;27;20360;-60
2022/11/01 02:19:29;;;;;;;13.88;6.88;;;307.70;2304.00;;;;;;5154247;27;20023;-61
2022/11/01 02:22:00;;;;;;;10.77;6.80;;;307.70;2304.00;;;;;;5154521;27;20042;-61
2022/11/01 02:24:32;;;;;;;13.70;8.93;;;307.60;2304.00;;;;;;5153985;27;20110;-61
2022/11/01 02:27:09;;;;;;;16.50;11.25;;;307.60;2304.00;;;;;;5154222;27;20448;-61
2022/11/01 02:29:59;;;;;;;12.20;7.85;;;307.60;2304.00;;;;;;5154150;27;20044;-61
2022/11/01 02:32:36;;;;;;;16.58;6.93;;;307.60;2304.00;;;;;;5154134;27;20450;-61
2022/11/01 02:35:05;;;;;;;11.60;7.55;;;307.60;2304.00;;;;;;5154478;27;20125;-61
2022/11/01 02:38:08;;;;;;;16.63;8.15;;;307.40;2304.00;;;;;;5153871;27;20029;-61
2022/11/01 02:40:51;;;;;;;25.63;15.43;;;307.50;2304.00;;;;;;5154084;27;20058;-61
2022/11/01 02:43:27;;;;;;;10.73;6.22;;;307.50;2304.00;;;;;;5153978;27;20101;-60
2022/11/01 02:45:55;;;;;;;24.30;11.02;;;307.50;2304.00;;;;;;5154207;27;20389;-61
2022/11/01 02:48:22;;;;;;;15.18;8.35;;;307.50;2304.00;;;;;;5153874;27;20022;-61
2022/11/01 02:50:53;;;;;;;9.88;6.03;;;307.50;2304.00;;;;;;5134937;27;20034;-61
2022/11/01 02:53:19;;;;;;;8.65;5.20;;;307.50;2304.00;;;;;;5153458;27;20472;-60
2022/11/01 02:55:45;;;;;;;16.50;8.57;;;307.50;2304.00;;;;;;5153707;27;20066;-61
2022/11/01 02:58:23;;;;;;;16.05;9.15;;;307.50;2304.00;;;;;;5153756;27;20018;-59
2022/11/01 03:00:49;;;;;;;12.30;7.85;;;307.30;2304.00;;;;;;5153309;27;20031;-60
2022/11/01 03:03:31;;;;;;;16.58;7.82;;;282.50;2278.40;;;;;;5153480;27;20011;-60
2022/11/01 03:06:03;;;;;;;17.35;8.13;;;282.50;2278.40;;;;;;5153106;27;20037;-62
2022/11/01 03:08:39;;;;;;;10.25;5.97;;;307.20;2304.00;;;;;;5153004;27;20070;-61
2022/11/01 03:11:21;;;;;;;12.15;6.25;;;307.20;2304.00;;;;;;5153342;27;20039;-60
2022/11/01 03:14:12;;;;;;;13.57;7.75;;;307.30;2304.00;;;;;;5153176;27;20023;-61
2022/11/01 03:17:15;;;;;;;16.90;8.73;;;307.30;2304.00;;;;;;5153304;27;20023;-60
2022/11/01 03:19:58;;;;;;;25.40;13.45;;;307.30;2304.00;;;;;;5069005;28;20116;-61
2022/11/01 03:22:42;;;;;;;30.50;10.88;;;307.30;2304.00;;;;;;5069230;28;20044;-61
2022/11/01 03:25:43;;;;;;;27.77;13.93;;;307.40;2304.00;;;;;;5069020;28;20036;-61
2022/11/01 03:28:18;;;;;;;29.48;15.35;;;307.40;2304.00;;;;;;5069078;28;20470;-60
2022/11/01 03:30:57;;;;;;;22.27;13.70;;;307.30;2304.00;;;;;;5069024;28;20580;-60
2022/11/01 03:33:25;;;;;;;19.20;9.55;;;307.30;2304.00;;;;;;5069092;28;20378;-60
2022/11/01 03:35:54;;;;;;;10.48;6.22;;;307.30;2304.00;;;;;;5068772;28;20041;-60
2022/11/01 03:38:25;;;;;;;11.55;4.70;;;307.30;2304.00;;;;;;5068504;28;20020;-60
2022/11/01 03:40:59;;;;;;;11.45;5.75;;;307.20;2304.00;;;;;;5048999;28;20056;-60
2022/11/01 03:43:28;;;;;;;13.68;5.35;;;307.20;2304.00;;;;;;5048783;28;20037;-60
2022/11/01 03:45:54;;;;;;;10.68;6.80;;;307.20;2304.00;;;;;;5048835;28;20487;-60
2022/11/01 03:48:19;;;;;;;15.38;7.55;;;307.20;2304.00;;;;;;5048438;28;20048;-61
2022/11/01 03:50:47;;;;;;;15.52;8.63;;;307.30;2304.00;;;;;;5048716;28;20091;-61
2022/11/01 03:53:13;;;;;;;18.23;10.05;;;307.30;2304.00;;;;;;5048470;28;20025;-60
2022/11/01 03:55:38;;;;;;;27.55;14.57;;;307.30;2304.00;;;;;;5092153;28;20080;-61
2022/11/01 03:58:06;;;;;;;11.65;4.88;;;307.30;2304.00;;;;;;5111678;28;20480;-60
2022/11/01 04:00:38;;;;;;;9.45;5.18;;;307.30;2304.00;;;;;;5111270;28;20024;-60
2022/11/01 04:03:04;;;;;;;9.48;5.00;;;307.30;2304.00;;;;;;5111236;28;20385;-61
2022/11/01 04:05:31;;;;;;;16.70;7.05;;;307.30;2304.00;;;;;;5111014;28;20016;-61
2022/11/01 04:07:56;;;;;;;12.43;5.13;;;307.30;2304.00;;;;;;5126834;27;20380;-61
2022/11/01 04:10:24;;;;;;;12.63;5.97;;;307.30;2304.00;;;;;;5110948;28;20043;-61
2022/11/01 04:12:51;;;;;;;10.48;6.15;;;307.30;2304.00;;;;;;5111028;28;20016;-60
2022/11/01 04:20:52;;;;;;;15.70;6.38;;;282.50;2278.40;;;;;;5111057;28;20073;-60
2022/11/01 04:23:18;;;;;;;19.27;10.00;;;282.50;2278.40;;;;;;5110618;28;20025;-61
2022/11/01 04:25:45;;;;;;;33.95;15.85;;;307.20;2304.00;;;;;;5111269;28;20104;-60
2022/11/01 04:28:12;;;;;;;33.88;18.38;;;282.50;2278.40;;;;;;5111421;28;20051;-61
2022/11/01 04:30:38;;;;;;;44.83;26.92;;;282.50;2278.40;;;;;;5110974;28;20035;-61
2022/11/01 04:33:03;;;;;;;33.38;19.42;;;307.20;2304.00;;;;;;5111323;28;20476;-60
2022/11/01 04:35:29;;;;;;;22.30;12.15;;;282.50;2278.40;;;;;;5110717;28;20076;-60
2022/11/01 04:37:56;;;;;;;24.60;10.95;;;282.50;2278.40;;;;;;5110696;28;20466;-58
2022/11/01 04:40:22;;;;;;;23.55;13.57;;;282.50;2278.40;;;;;;5142267;27;20122;-61
2022/11/01 04:42:47;;;;;;;23.40;9.45;;;282.50;2278.40;;;;;;5151738;27;20023;-61
2022/11/01 04:45:13;;;;;;;15.77;7.68;;;282.50;2278.40;;;;;;5151897;27;20044;-62
2022/11/01 04:47:49;;;;;;;16.08;8.35;;;282.50;2278.40;;;;;;5151730;27;20023;-61
2022/11/01 04:50:16;;;;;;;15.10;7.72;;;282.50;2278.40;;;;;;5151748;27;20045;-61
2022/11/01 04:52:41;;;;;;;16.48;7.00;;;282.50;2278.40;;;;;;5152034;27;20105;-60
2022/11/01 04:55:07;;;;;;;11.38;6.60;;;282.50;2278.40;;;;;;5151937;27;20061;-62
2022/11/01 04:57:43;;;;;;;17.75;9.70;;;282.50;2278.40;;;;;;5152193;27;20015;-59
2022/11/01 05:00:11;;;;;;;14.88;9.70;;;282.50;2278.40;;;;;;5151461;27;20019;-62
2022/11/01 05:02:38;;;;;;;13.88;6.15;;;282.50;2278.40;;;;;;5151524;27;20072;-61
2022/11/01 05:05:06;;;;;;;12.52;4.70;;;282.50;2278.40;;;;;;5151819;27;20026;-61
2022/11/01 05:07:32;;;;;;;7.63;4.30;;;282.50;2278.40;;;;;;5151867;27;20019;-59
2022/11/01 05:09:58;;;;;;;10.77;4.65;;;282.50;2278.40;;;;;;5151217;27;20038;-60
2022/11/01 05:12:24;;;;;;;8.45;4.40;;;282.50;2278.40;;;;;;5151909;27;20027;-62
2022/11/01 05:14:49;;;;;;;13.60;7.00;;;282.50;2278.40;;;;;;5151363;27;20425;-62
2022/11/01 05:17:15;;;;;;;27.27;7.18;;;282.50;2278.40;;;;;;5151741;27;20019;-62
2022/11/01 05:19:41;;;;;;;11.63;6.47;;;282.50;2278.40;;;;;;5151348;27;20488;-61
2022/11/01 05:22:06;;;;;;;9.70;6.43;;;282.50;2278.40;;;;;;5151793;27;20066;-61
2022/11/01 05:24:32;;;;;;;10.38;6.32;;;307.20;2304.00;;;;;;5151570;27;20082;-62
2022/11/01 05:26:59;;;;;;;12.43;6.72;;;307.20;2304.00;;;;;;5151689;27;20105;-61
2022/11/01 05:29:25;;;;;;;12.80;8.02;;;307.30;2304.00;;;;;;5154412;27;20027;-60
2022/11/01 05:31:51;;;;;;;26.52;15.07;;;307.30;2304.00;;;;;;5155599;27;20175;-60
2022/11/01 05:34:17;;;;;;;17.88;11.35;;;307.30;2304.00;;;;;;5155232;27;20061;-60
2022/11/01 05:36:43;;;;;;;15.52;7.03;;;307.40;2304.00;;;;;;5155471;27;20088;-61
2022/11/01 05:39:09;;;;;;;11.32;6.05;;;307.40;2304.00;;;;;;5154724;27;20050;-61
2022/11/01 05:41:35;;;;;;;13.43;6.22;;;307.50;2304.00;;;;;;5155365;27;20027;-61
2022/11/01 05:44:00;;;;;;;11.60;7.68;;;307.60;2304.00;;;;;;5155135;27;20022;-61
2022/11/01 05:46:26;;;;;;;12.73;5.80;;;307.70;2304.00;;;;;;5155246;27;20368;-60
2022/11/01 05:48:52;;;;;;;11.27;6.38;;;307.70;2304.00;;;;;;5155351;27;20079;-61
2022/11/01 05:51:17;;;;;;;11.40;6.43;;;307.80;2304.00;;;;;;5154969;27;20026;-61
2022/11/01 05:53:43;;;;;;;11.35;5.60;;;307.90;2304.00;;;;;;5155074;27;20031;-60
2022/11/01 05:56:09;;;;;;;11.50;6.30;;;307.90;2304.00;;;;;;5154623;27;20374;-61
2022/11/01 05:58:35;;;;;;;10.25;6.20;;;308.00;2304.00;;;;;;5155325;27;20026;-61
2022/11/01 06:01:04;;;;;;;17.42;6.57;;;308.00;2304.00;;;;;;5154925;27;20380;-61
2022/11/01 06:03:30;;;;;;;11.50;5.47;;;308.00;2304.00;;;;;;5154627;27;20071;-61
2022/11/01 06:05:56;;;;;;;12.50;5.00;;;308.10;2304.00;;;;;;5154922;27;20023;-60
2022/11/01 06:08:22;;;;;;;12.32;4.25;;;308.10;2304.00;;;;;;5154396;27;20038;-59
2022/11/01 06:10:48;;;;;;;9.85;5.65;;;332.80;2329.60;;;;;;5154173;27;20034;-60
2022/11/01 06:13:14;;;;;;;14.18;6.60;;;332.80;2329.60;;;;;;5154584;27;20022;-61
2022/11/01 06:15:39;;;;;;;13.23;5.95;;;332.90;2329.60;;;;;;5154237;27;20105;-62
2022/11/01 06:18:05;;;;;;;13.60;5.97;;;333.00;2329.60;;;;;;5155027;27;20027;-60
2022/11/01 06:20:32;;;;;;;8.70;5.32;;;333.00;2329.60;;;;;;5154777;27;20050;-60
2022/11/01 06:22:59;;;;;;;10.23;6.63;;;333.10;2329.60;;;;;;5154128;27;20106;-61
2022/11/01 06:25:27;;;;;;;52.25;12.23;;;333.20;2329.60;;;;;;5154416;27;20348;-60
2022/11/01 06:27:53;;;;;;;11.02;4.72;;;333.20;2329.60;;;;;;5154339;27;20064;-62
2022/11/01 06:30:19;;;;;;;8.77;5.30;;;333.40;2329.60;;;;;;5153926;27;20042;-59
2022/11/01 06:32:45;;;;;;;12.05;5.63;;;333.30;2329.60;;;;;;5154277;27;20027;-60
2022/11/01 06:35:11;;;;;;;10.02;3.70;;;333.20;2329.60;;;;;;5154177;27;20025;-61
2022/11/01 06:37:37;;;;;;;6.75;4.10;;;333.30;2329.60;;;;;;5153999;27;20026;-61
2022/11/01 06:40:05;;;;;;;12.02;5.63;;;333.40;2329.60;;;;;;5153515;27;20073;-58
2022/11/01 06:42:30;;;;;;;14.55;4.25;;;333.40;2329.60;;;;;;5153676;27;20425;-58
2022/11/01 06:44:56;;;;;;;18.77;5.10;;;333.40;2329.60;;;;;;5153803;27;20051;-59
2022/11/01 06:47:22;;;;;;;14.55;6.05;;;333.60;2329.60;;;;;;5154211;27;20023;-61
2022/11/01 06:49:48;;;;;;;15.68;4.78;;;333.70;2329.60;;;;;;5153868;27;20050;-57
2022/11/01 06:52:13;;;;;;;19.15;4.57;;;358.50;2329.60;;;;;;5153813;27;20499;-56
2022/11/01 06:54:39;;;;;;;14.25;5.22;;;358.50;2329.60;;;;;;5153535;27;20468;-60
2022/11/01 06:57:05;;;;;;;18.88;10.10;;;358.70;2329.60;;;;;;5153815;27;20022;-65
2022/11/01 06:59:30;;;;;;;17.08;12.07;;;358.80;2329.60;;;;;;5153400;27;20021;-62
2022/11/01 07:01:56;;;;;;;19.17;9.98;;;358.80;2329.60;;;;;;5153536;27;20031;-61
2022/11/01 07:04:22;;;;;;;15.15;7.45;;;358.80;2329.60;;;;;;5153820;27;20030;-63
2022/11/01 07:06:48;;;;;;;13.02;7.55;;;358.90;2329.60;;;;;;5153262;27;20379;-63
2022/11/01 07:09:14;;;;;;;12.68;7.43;;;359.00;2329.60;;;;;;5153300;27;20023;-66
2022/11/01 07:11:39;;;;;;;17.35;9.70;;;359.00;2329.60;;;;;;5153244;27;20110;-66
2022/11/01 07:14:05;;;;;;;14.45;9.18;;;359.20;2329.60;;;;;;5153699;27;20034;-60
2022/11/01 07:16:32;;;;;;;16.63;8.02;;;359.30;2329.60;;;;;;5134501;27;20422;-64
2022/11/01 07:18:57;;;;;;;14.02;6.32;;;384.00;2329.60;;;;;;5153297;27;20015;-61
2022/11/01 07:21:23;;;;;;;16.17;6.93;;;384.20;2329.60;;;;;;5153172;27;20498;-65
2022/11/01 07:23:49;;;;;;;13.25;7.38;;;409.70;2355.20;;;;;;5153192;27;20027;-63
2022/11/01 07:26:15;;;;;;;20.40;7.18;;;435.70;2355.20;;;;;;5153171;27;20523;-65
2022/11/01 07:28:41;;;;;;;13.48;7.55;;;461.60;2380.80;;;;;;5153152;27;20023;-64
2022/11/01 07:31:06;;;;;;;74.80;52.67;;;487.20;2227.20;;;;;;5152912;27;20384;-66
2022/11/01 07:33:32;;;;;;;76.18;53.35;;;512.10;2201.60;;;;;;5153281;27;20030;-66
2022/11/01 07:36:00;;;;;;;89.60;56.80;;;486.90;2252.80;;;;;;5133844;27;20189;-65
2022/11/01 07:38:25;;;;;;;99.63;64.40;;;486.50;2304.00;;;;;;5152857;27;20026;-67
2022/11/01 07:40:53;;;;;;;88.60;60.03;;;486.70;2278.40;;;;;;5152513;27;20083;-66
2022/11/01 07:43:19;;;;;;;83.60;57.28;;;487.10;2227.20;;;;;;5152775;27;20102;-67
2022/11/01 07:45:45;;;;;;;79.50;56.67;;;512.80;2150.40;;;;;;5153017;27;20023;-64
2022/11/01 07:48:14;;;;;;;87.18;62.35;;;538.20;2048.00;;;;;;5153059;27;20018;-62
2022/11/01 07:50:41;;;;;;;76.18;56.58;;;589.40;1971.20;;;;;;5151998;27;20041;-64
2022/11/01 07:53:07;;;;;;;65.90;49.00;;;615.30;1817.60;;;;;;5152638;27;20019;-65
2022/11/01 07:55:34;;;;;;;75.35;52.72;;;665.60;1715.20;;;;;;5152532;27;20087;-64
2022/11/01 07:58:00;;;;;;;79.97;61.50;;;666.20;1664.00;;;;;;5152562;27;20023;-63
2022/11/01 08:00:26;;;;;;;81.50;64.80;;;691.40;1612.80;;;;;;5152698;27;20026;-65
2022/11/01 08:02:57;;;;;;;77.00;61.80;;;666.40;1612.80;;;;;;5152433;27;20015;-66
2022/11/01 08:05:23;;;;;;;68.78;54.80;;;666.40;1587.20;;;;;;5152322;27;20026;-63
2022/11/01 08:07:49;;;;;;;52.85;44.53;;;691.20;1561.60;;;;;;5152193;27;20137;-60
2022/11/01 08:10:15;;;;;;;58.33;46.35;;;691.70;1510.40;;;;;;5152173;27;20043;-60
2022/11/01 08:12:40;;;;;;;81.88;67.30;;;666.40;1587.20;;;;;;5152147;27;20021;-60
2022/11/01 08:15:06;;;;;;;72.47;53.75;;;666.00;1587.20;;;;;;5152299;27;20571;-60
2022/11/01 08:17:33;;;;;;;51.80;40.55;;;691.60;1510.40;;;;;;5152198;27;20144;-62
2022/11/01 08:19:59;;;;;;;46.60;39.17;;;666.30;1536.00;;;;;;5151920;27;20368;-62
2022/11/01 08:22:24;;;;;;;37.22;31.67;;;692.00;1484.80;;;;;;5152367;27;20030;-61
2022/11/01 08:24:50;;;;;;;30.25;27.23;;;666.40;1536.00;;;;;;5151811;27;20023;-62
2022/11/01 08:27:16;;;;;;;32.38;26.35;;;666.50;1536.00;;;;;;5152300;27;20019;-60
2022/11/01 08:29:41;;;;;;;32.40;25.63;;;691.60;1484.80;;;;;;5152119;27;20464;-62
2022/11/01 08:32:07;;;;;;;30.98;27.45;;;691.90;1459.20;;;;;;5151954;27;20075;-63
2022/11/01 08:34:33;;;;;;;36.88;30.00;;;716.90;1484.80;;;;;;5152211;27;20027;-64
2022/11/01 08:36:58;;;;;;;46.15;35.40;;;717.30;1459.20;;;;;;5151989;27;20417;-63
2022/11/01 08:39:25;;;;;;;54.10;35.28;;;717.70;1459.20;;;;;;5151699;27;20514;-64
2022/11/01 08:41:51;;;;;;;48.22;38.80;;;717.70;1459.20;;;;;;5151837;27;20029;-61
2022/11/01 08:44:18;;;;;;;49.10;36.67;;;717.00;1484.80;;;;;;5151945;27;20022;-62
2022/11/01 08:46:45;;;;;;;49.17;33.15;;;692.00;1459.20;;;;;;5152210;27;20026;-64
2022/11/01 08:49:11;;;;;;;41.47;29.65;;;692.00;1459.20;;;;;;5152005;27;20472;-62
2022/11/01 08:51:37;;;;;;;45.88;32.22;;;716.80;1484.80;;;;;;5151938;27;20030;-63
2022/11/01 08:54:04;;;;;;;37.58;29.05;;;692.00;1459.20;;;;;;5151625;27;20087;-62
2022/11/01 08:56:30;;;;;;;42.80;33.40;;;691.70;1484.80;;;;;;5151574;27;20019;-63
2022/11/01 08:58:57;;;;;;;44.30;33.47;;;691.60;1484.80;;;;;;5151505;27;20023;-61
2022/11/01 09:01:25;;;;;;;46.70;32.97;;;691.40;1484.80;;;;;;5151636;27;20472;-61
2022/11/01 09:04:01;;;;;;;46.13;33.40;;;691.90;1459.20;;;;;;5155269;27;20084;-62
2022/11/01 09:06:27;;;;;;;45.38;31.08;;;692.00;1459.20;;;;;;5155631;27;20440;-64
2022/11/01 09:08:54;;;;;;;48.88;33.75;;;691.60;1484.80;;;;;;5155600;27;20083;-63
2022/11/01 09:11:22;;;;;;;54.45;30.15;;;691.40;1484.80;;;;;;5155402;27;20039;-64
2022/11/01 09:13:48;;;;;;;41.03;28.33;;;666.50;1510.40;;;;;;5155286;27;20071;-63
2022/11/01 09:16:15;;;;;;;40.63;28.67;;;666.30;1510.40;;;;;;5155945;27;20058;-64
2022/11/01 09:18:41;;;;;;;34.83;25.77;;;665.90;1536.00;;;;;;5155365;27;20023;-63
2022/11/01 09:21:07;;;;;;;45.28;26.23;;;640.70;1510.40;;;;;;5155506;27;20052;-63
2022/11/01 09:23:34;;;;;;;42.33;27.52;;;615.20;1561.60;;;;;;5155839;27;20030;-63
2022/11/01 09:26:09;;;;;;;51.28;30.58;;;615.00;1612.80;;;;;;5155599;27;20040;-63
2022/11/01 09:28:36;;;;;;;56.17;28.05;;;615.10;1612.80;;;;;;5155651;27;20097;-63
2022/11/01 09:31:07;;;;;;;39.15;22.05;;;614.80;1638.40;;;;;;5155688;27;20042;-63
2022/11/01 09:33:33;;;;;;;41.47;22.88;;;614.50;1612.80;;;;;;5155755;27;20528;-64
2022/11/01 09:35:59;;;;;;;36.10;22.08;;;614.50;1612.80;;;;;;5155265;27;20034;-63
2022/11/01 09:38:25;;;;;;;36.10;18.42;;;614.60;1638.40;;;;;;5155306;27;20072;-63
2022/11/01 09:41:31;;;;;;;43.95;18.30;;;589.70;1612.80;;;;;;5154888;27;20082;-62
2022/11/01 09:44:00;;;;;;;33.00;19.63;;;614.40;1638.40;;;;;;5155330;27;20115;-62
2022/11/01 09:46:30;;;;;;;30.00;19.10;;;589.60;1612.80;;;;;;5155140;27;20031;-63
2022/11/01 09:48:59;;;;;;;31.83;18.80;;;589.40;1638.40;;;;;;5154997;27;20460;-62
2022/11/01 09:51:25;;;;;;;33.38;16.33;;;589.30;1664.00;;;;;;5155369;27;20038;-63
2022/11/01 09:53:56;;;;;;;29.98;15.65;;;589.30;1664.00;;;;;;5154713;27;20490;-64
2022/11/01 09:56:33;;;;;;;28.65;16.80;;;589.40;1638.40;;;;;;5154973;27;20045;-63
2022/11/01 09:59:21;;;;;;;31.90;17.33;;;589.30;1664.00;;;;;;5154552;27;20113;-63
2022/11/01 10:02:06;;;;;;;27.83;18.10;;;589.20;1664.00;;;;;;5154806;27;20053;-63
2022/11/01 10:04:44;;;;;;;29.65;16.23;;;589.20;1664.00;;;;;;5154517;27;20046;-64
2022/11/01 10:07:26;;;;;;;26.63;14.25;;;589.10;1664.00;;;;;;5142850;27;20023;-64
2022/11/01 10:09:52;;;;;;;30.88;14.98;;;589.20;1664.00;;;;;;5133665;27;20042;-63
2022/11/01 10:12:18;;;;;;;20.60;13.35;;;589.20;1664.00;;;;;;5133580;27;20031;-62
2022/11/01 10:14:59;;;;;;;25.40;13.15;;;589.30;1612.80;;;;;;5132931;27;20035;-63
2022/11/01 10:17:48;;;;;;;27.83;12.75;;;589.20;1638.40;;;;;;5133886;27;20080;-62
2022/11/01 10:20:14;;;;;;;27.15;13.63;;;589.30;1638.40;;;;;;5126956;27;20034;-63
2022/11/01 10:22:46;;;;;;;21.90;13.85;;;589.30;1638.40;;;;;;5133575;27;20024;-63
2022/11/01 10:25:27;;;;;;;23.20;13.80;;;589.60;1612.80;;;;;;5133583;27;20102;-64
2022/11/01 10:28:14;;;;;;;26.10;14.45;;;614.40;1587.20;;;;;;5133685;27;20042;-63
2022/11/01 10:30:47;;;;;;;26.48;14.30;;;614.50;1612.80;;;;;;5133260;27;20096;-62
2022/11/01 10:33:19;;;;;;;25.92;11.40;;;614.50;1612.80;;;;;;5133683;27;20469;-64
2022/11/01 10:35:50;;;;;;;21.55;11.55;;;614.40;1612.80;;;;;;5133421;27;20572;-63
2022/11/01 10:38:42;;;;;;;27.65;13.73;;;614.40;1612.80;;;;;;5133215;27;20034;-63
2022/11/01 10:41:28;;;;;;;23.80;12.98;;;589.70;1612.80;;;;;;5090006;28;20074;-64
2022/11/01 10:43:57;;;;;;;24.52;11.93;;;589.60;1612.80;;;;;;5090277;28;20032;-63
2022/11/01 10:46:28;;;;;;;21.67;12.23;;;589.60;1587.20;;;;;;5090148;28;20058;-63
2022/11/01 10:48:58;;;;;;;21.27;11.48;;;589.60;1587.20;;;;;;5090087;28;20554;-63
2022/11/01 10:51:27;;;;;;;25.75;12.25;;;589.70;1561.60;;;;;;5089935;28;20126;-64
2022/11/01 10:53:57;;;;;;;24.20;10.93;;;614.50;1587.20;;;;;;5072924;28;20486;-63
2022/11/01 10:56:40;;;;;;;31.17;10.70;;;614.40;1561.60;;;;;;5089895;28;20101;-63
2022/11/01 10:59:31;;;;;;;18.75;9.80;;;614.40;1587.20;;;;;;5089869;28;20127;-63
2022/11/01 11:02:00;;;;;;;22.55;10.95;;;614.50;1561.60;;;;;;5029409;28;20047;-64
2022/11/01 11:04:27;;;;;;;22.08;10.75;;;614.60;1612.80;;;;;;5029594;28;20038;-62
2022/11/01 11:06:53;;;;;;;26.10;10.93;;;614.60;1587.20;;;;;;5029709;28;20436;-63
2022/11/01 11:09:26;;;;;;;23.65;10.00;;;614.70;1587.20;;;;;;5029141;28;20033;-63
2022/11/01 11:11:54;;;;;;;;;;;614.80;1587.20;;;;;;5029826;28;20091;-63
2022/11/01 11:14:20;;;;;;;20.38;10.02;;;614.80;1561.60;;;;;;5029197;28;20060;-63
2022/11/01 11:16:55;;;;;;;24.90;9.02;;;614.80;1587.20;;;;;;5029301;28;20581;-63
2022/11/01 11:19:37;;;;;;;19.02;10.00;;;614.90;1561.60;;;;;;5049226;28;20125;-64
2022/11/01 11:22:07;;;;;;;18.27;9.48;;;614.80;1561.60;;;;;;5049353;28;20036;-63
2022/11/01 11:24:38;;;;;;;17.88;9.40;;;614.90;1561.60;;;;;;5032551;28;20115;-65
2022/11/01 11:27:13;;;;;;;26.30;9.63;;;615.10;1536.00;;;;;;5049314;28;20040;-63
2022/11/01 11:29:47;;;;;;;18.08;8.18;;;615.20;1561.60;;;;;;5048850;28;20088;-63
2022/11/01 11:32:22;;;;;;;23.77;8.80;;;615.20;1510.40;;;;;;5049128;28;20082;-64
2022/11/01 11:35:01;;;;;;;17.35;8.68;;;615.30;1510.40;;;;;;5048739;28;20467;-64
2022/11/01 11:37:33;;;;;;;22.55;9.75;;;640.10;1510.40;;;;;;5048806;28;20437;-62
2022/11/01 11:40:11;;;;;;;22.10;9.40;;;640.00;1510.40;;;;;;5123183;27;20074;-62
2022/11/01 11:42:37;;;;;;;27.88;10.32;;;640.00;1510.40;;;;;;5132131;27;20031;-65
2022/11/01 11:45:28;;;;;;;25.88;9.38;;;640.20;1484.80;;;;;;5132151;27;20023;-63
2022/11/01 11:47:56;;;;;;;17.25;8.48;;;640.40;1459.20;;;;;;5131981;27;20027;-64
2022/11/01 11:50:31;;;;;;;19.08;10.27;;;640.30;1433.60;;;;;;5132218;27;20031;-64
2022/11/01 11:53:01;;;;;;;18.27;8.45;;;640.20;1484.80;;;;;;5131734;27;20545;-63
2022/11/01 11:55:41;;;;;;;21.60;9.68;;;640.30;1433.60;;;;;;5131663;27;20042;-64
2022/11/01 11:58:26;;;;;;;26.83;12.65;;;640.40;1433.60;;;;;;5131777;27;20473;-63
2022/11/01 12:01:01;;;;;;;20.23;10.95;;;640.60;1459.20;;;;;;5131812;27;20022;-63
2022/11/01 12:03:28;;;;;;;29.88;12.57;;;640.50;1484.80;;;;;;5131644;27;20019;-63
2022/11/01 12:06:00;;;;;;;30.70;9.85;;;640.50;1484.80;;;;;;5131754;27;20019;-63
2022/11/01 12:08:37;;;;;;;36.45;13.90;;;640.50;1459.20;;;;;;5131707;27;20043;-63
2022/11/01 12:11:04;;;;;;;28.95;13.38;;;640.60;1433.60;;;;;;5131459;27;20492;-63
2022/11/01 12:13:35;;;;;;;35.53;15.48;;;640.50;1433.60;;;;;;5131167;27;20034;-64
2022/11/01 12:16:16;;;;;;;26.70;14.57;;;640.60;1459.20;;;;;;5131295;27;20031;-64
2022/11/01 12:19:02;;;;;;;25.50;14.82;;;640.70;1459.20;;;;;;5131299;27;20115;-63
2022/11/01 12:21:35;;;;;;;29.77;15.63;;;640.90;1408.00;;;;;;5131093;27;20019;-62